sensor_id;sensor_type;location;lat;lon;timestamp;temperature;humidity
14411;DHT22;7290;50.854;4.354;2023-03-01T00:01:23;4.10;99.90
14411;DHT22;7290;50.854;4.354;2023-03-01T00:03:50;4.10;99.90
14411;DHT22;7290;50.854;4.354;2023-03-01T00:06:17;4.00;99.90
14411;DHT22;7290;50.854;4.354;2023-03-01T00:08:44;3.90;99.90
14411;DHT22;7290;50.854;4.354;2023-03-01T00:11:12;3.90;99.90
14411;DHT22;7290;50.854;4.354;2023-03-01T00:13:40;3.70;99.90
14411;DHT22;7290;50.854;4.354;2023-03-01T00:16:09;3.70;99.90
14411;DHT22;7290;50.854;4.354;2023-03-01T00:18:35;3.80;99.90
14411;DHT22;7290;50.854;4.354;2023-03-01T00:21:02;3.90;99.90
14411;DHT22;7290;50.854;4.354;2023-03-01T00:23:29;3.90;99.90
14411;DHT22;7290;50.854;4.354;2023-03-01T00:25:55;4.00;99.90
14411;DHT22;7290;50.854;4.354;2023-03-01T00:28:22;3.90;99.90
14411;DHT22;7290;50.854;4.354;2023-03-01T00:30:49;3.90;99.90
14411;DHT22;7290;50.854;4.354;2023-03-01T00:33:15;3.90;99.90
14411;DHT22;7290;50.854;4.354;2023-03-01T00:35:42;3.90;99.90
14411;DHT22;7290;50.854;4.354;2023-03-01T00:38:08;3.90;99.90
14411;DHT22;7290;50.854;4.354;2023-03-01T00:40:35;3.80;99.90
14411;DHT22;7290;50.854;4.354;2023-03-01T00:43:02;3.80;99.90
14411;DHT22;7290;50.854;4.354;2023-03-01T00:45:29;3.70;99.90
14411;DHT22;7290;50.854;4.354;2023-03-01T00:47:56;3.70;99.90
14411;DHT22;7290;50.854;4.354;2023-03-01T00:50:23;3.80;99.90
14411;DHT22;7290;50.854;4.354;2023-03-01T00:52:52;3.70;99.90
14411;DHT22;7290;50.854;4.354;2023-03-01T00:55:18;3.70;99.90
14411;DHT22;7290;50.854;4.354;2023-03-01T00:57:45;3.70;99.90
14411;DHT22;7290;50.854;4.354;2023-03-01T01:00:12;3.80;99.90
14411;DHT22;7290;50.854;4.354;2023-03-01T01:02:38;3.80;99.90
14411;DHT22;7290;50.854;4.354;2023-03-01T01:05:05;3.70;99.90
14411;DHT22;7290;50.854;4.354;2023-03-01T01:07:31;3.70;99.90
14411;DHT22;7290;50.854;4.354;2023-03-01T01:09:57;3.70;99.90
14411;DHT22;7290;50.854;4.354;2023-03-01T01:12:23;3.60;99.90
14411;DHT22;7290;50.854;4.354;2023-03-01T01:14:50;3.50;99.90
14411;DHT22;7290;50.854;4.354;2023-03-01T01:17:16;3.40;99.90
14411;DHT22;7290;50.854;4.354;2023-03-01T01:19:42;3.40;99.90
14411;DHT22;7290;50.854;4.354;2023-03-01T01:22:09;3.40;99.90
14411;DHT22;7290;50.854;4.354;2023-03-01T01:24:35;3.40;99.90
14411;DHT22;7290;50.854;4.354;2023-03-01T01:27:01;3.40;99.90
14411;DHT22;7290;50.854;4.354;2023-03-01T01:29:27;3.50;99.90
14411;DHT22;7290;50.854;4.354;2023-03-01T01:31:54;3.50;99.90
14411;DHT22;7290;50.854;4.354;2023-03-01T01:34:21;3.40;99.90
14411;DHT22;7290;50.854;4.354;2023-03-01T01:36:48;3.40;99.90
14411;DHT22;7290;50.854;4.354;2023-03-01T01:39:14;3.40;99.90
14411;DHT22;7290;50.854;4.354;2023-03-01T01:41:41;3.30;99.90
14411;DHT22;7290;50.854;4.354;2023-03-01T01:44:14;3.30;99.90
14411;DHT22;7290;50.854;4.354;2023-03-01T01:46:41;3.30;99.90
14411;DHT22;7290;50.854;4.354;2023-03-01T01:49:19;3.40;99.90
14411;DHT22;7290;50.854;4.354;2023-03-01T01:51:49;3.40;99.90
14411;DHT22;7290;50.854;4.354;2023-03-01T01:54:20;3.20;99.90
14411;DHT22;7290;50.854;4.354;2023-03-01T01:56:52;3.10;99.90
14411;DHT22;7290;50.854;4.354;2023-03-01T01:59:21;3.10;99.90
14411;DHT22;7290;50.854;4.354;2023-03-01T02:01:50;3.20;99.90
14411;DHT22;7290;50.854;4.354;2023-03-01T02:04:17;3.30;99.90
14411;DHT22;7290;50.854;4.354;2023-03-01T02:06:49;3.40;99.90
14411;DHT22;7290;50.854;4.354;2023-03-01T02:09:20;3.30;99.90
14411;DHT22;7290;50.854;4.354;2023-03-01T02:11:47;3.20;99.90
14411;DHT22;7290;50.854;4.354;2023-03-01T02:14:14;2.90;99.90
14411;DHT22;7290;50.854;4.354;2023-03-01T02:16:40;2.80;99.90
14411;DHT22;7290;50.854;4.354;2023-03-01T02:19:09;2.80;99.90
14411;DHT22;7290;50.854;4.354;2023-03-01T02:21:46;2.90;99.90
14411;DHT22;7290;50.854;4.354;2023-03-01T02:24:21;3.00;99.90
14411;DHT22;7290;50.854;4.354;2023-03-01T02:26:53;3.00;99.90
14411;DHT22;7290;50.854;4.354;2023-03-01T02:29:21;3.10;99.90
14411;DHT22;7290;50.854;4.354;2023-03-01T02:31:48;3.00;99.90
14411;DHT22;7290;50.854;4.354;2023-03-01T02:34:17;2.80;99.90
14411;DHT22;7290;50.854;4.354;2023-03-01T02:36:46;2.90;99.90
14411;DHT22;7290;50.854;4.354;2023-03-01T02:39:15;2.90;99.90
14411;DHT22;7290;50.854;4.354;2023-03-01T02:41:44;2.70;99.90
14411;DHT22;7290;50.854;4.354;2023-03-01T02:44:12;2.80;99.90
14411;DHT22;7290;50.854;4.354;2023-03-01T02:46:43;3.00;99.90
14411;DHT22;7290;50.854;4.354;2023-03-01T02:49:19;3.00;99.90
14411;DHT22;7290;50.854;4.354;2023-03-01T02:51:52;3.10;99.90
14411;DHT22;7290;50.854;4.354;2023-03-01T02:54:24;3.10;99.90
14411;DHT22;7290;50.854;4.354;2023-03-01T02:56:51;3.00;99.90
14411;DHT22;7290;50.854;4.354;2023-03-01T02:59:20;2.90;99.90
14411;DHT22;7290;50.854;4.354;2023-03-01T03:01:47;2.90;99.90
14411;DHT22;7290;50.854;4.354;2023-03-01T03:04:16;2.90;99.90
14411;DHT22;7290;50.854;4.354;2023-03-01T03:06:43;2.80;99.90
14411;DHT22;7290;50.854;4.354;2023-03-01T03:09:10;2.80;99.90
14411;DHT22;7290;50.854;4.354;2023-03-01T03:11:36;2.70;99.90
14411;DHT22;7290;50.854;4.354;2023-03-01T03:14:04;2.60;99.90
14411;DHT22;7290;50.854;4.354;2023-03-01T03:16:30;2.70;99.90
14411;DHT22;7290;50.854;4.354;2023-03-01T03:18:57;2.60;99.90
14411;DHT22;7290;50.854;4.354;2023-03-01T03:21:30;2.50;99.90
14411;DHT22;7290;50.854;4.354;2023-03-01T03:23:56;2.60;99.90
14411;DHT22;7290;50.854;4.354;2023-03-01T03:26:23;2.60;99.90
14411;DHT22;7290;50.854;4.354;2023-03-01T03:28:49;2.60;99.90
14411;DHT22;7290;50.854;4.354;2023-03-01T03:31:15;2.70;99.90
14411;DHT22;7290;50.854;4.354;2023-03-01T03:33:41;2.70;99.90
14411;DHT22;7290;50.854;4.354;2023-03-01T03:36:08;2.70;99.90
14411;DHT22;7290;50.854;4.354;2023-03-01T03:38:38;2.70;99.90
14411;DHT22;7290;50.854;4.354;2023-03-01T03:41:06;2.60;99.90
14411;DHT22;7290;50.854;4.354;2023-03-01T03:43:35;2.70;99.90
14411;DHT22;7290;50.854;4.354;2023-03-01T03:46:01;2.70;99.90
14411;DHT22;7290;50.854;4.354;2023-03-01T03:48:31;2.60;99.90
14411;DHT22;7290;50.854;4.354;2023-03-01T03:50:58;2.50;99.90
14411;DHT22;7290;50.854;4.354;2023-03-01T03:53:27;2.60;99.90
14411;DHT22;7290;50.854;4.354;2023-03-01T03:55:54;2.70;99.90
14411;DHT22;7290;50.854;4.354;2023-03-01T03:58:21;2.50;99.90
14411;DHT22;7290;50.854;4.354;2023-03-01T04:00:49;2.60;99.90
14411;DHT22;7290;50.854;4.354;2023-03-01T04:03:17;2.60;99.90
14411;DHT22;7290;50.854;4.354;2023-03-01T04:05:45;2.40;99.90
14411;DHT22;7290;50.854;4.354;2023-03-01T04:08:11;2.40;99.90
14411;DHT22;7290;50.854;4.354;2023-03-01T04:10:40;2.40;99.90
14411;DHT22;7290;50.854;4.354;2023-03-01T04:13:07;2.30;99.90
14411;DHT22;7290;50.854;4.354;2023-03-01T04:15:35;2.30;99.90
14411;DHT22;7290;50.854;4.354;2023-03-01T04:18:02;2.20;99.90
14411;DHT22;7290;50.854;4.354;2023-03-01T04:20:30;2.30;99.90
14411;DHT22;7290;50.854;4.354;2023-03-01T04:22:58;2.30;99.90
14411;DHT22;7290;50.854;4.354;2023-03-01T04:25:25;2.30;99.90
14411;DHT22;7290;50.854;4.354;2023-03-01T04:27:52;2.30;99.90
14411;DHT22;7290;50.854;4.354;2023-03-01T04:30:18;2.30;99.90
14411;DHT22;7290;50.854;4.354;2023-03-01T04:32:44;2.20;99.90
14411;DHT22;7290;50.854;4.354;2023-03-01T04:35:10;2.20;99.90
14411;DHT22;7290;50.854;4.354;2023-03-01T04:37:36;2.00;99.90
14411;DHT22;7290;50.854;4.354;2023-03-01T04:40:03;1.90;99.90
14411;DHT22;7290;50.854;4.354;2023-03-01T04:42:38;2.00;99.90
14411;DHT22;7290;50.854;4.354;2023-03-01T04:45:06;2.10;99.90
14411;DHT22;7290;50.854;4.354;2023-03-01T04:47:38;2.10;99.90
14411;DHT22;7290;50.854;4.354;2023-03-01T04:50:06;2.10;99.90
14411;DHT22;7290;50.854;4.354;2023-03-01T04:52:32;2.00;99.90
14411;DHT22;7290;50.854;4.354;2023-03-01T04:54:58;2.10;99.90
14411;DHT22;7290;50.854;4.354;2023-03-01T04:57:24;2.00;99.90
14411;DHT22;7290;50.854;4.354;2023-03-01T04:59:50;2.00;99.90
14411;DHT22;7290;50.854;4.354;2023-03-01T05:02:17;2.00;99.90
14411;DHT22;7290;50.854;4.354;2023-03-01T05:04:43;2.00;99.90
14411;DHT22;7290;50.854;4.354;2023-03-01T05:07:09;1.90;99.90
14411;DHT22;7290;50.854;4.354;2023-03-01T05:09:35;1.80;99.90
14411;DHT22;7290;50.854;4.354;2023-03-01T05:12:01;1.90;99.90
14411;DHT22;7290;50.854;4.354;2023-03-01T05:14:28;1.90;99.90
14411;DHT22;7290;50.854;4.354;2023-03-01T05:16:54;1.70;99.90
14411;DHT22;7290;50.854;4.354;2023-03-01T05:19:21;1.70;99.90
14411;DHT22;7290;50.854;4.354;2023-03-01T05:21:48;1.80;99.90
14411;DHT22;7290;50.854;4.354;2023-03-01T05:24:31;1.80;99.90
14411;DHT22;7290;50.854;4.354;2023-03-01T05:26:57;1.80;99.90
14411;DHT22;7290;50.854;4.354;2023-03-01T05:29:25;1.70;99.90
14411;DHT22;7290;50.854;4.354;2023-03-01T05:31:52;1.70;99.90
14411;DHT22;7290;50.854;4.354;2023-03-01T05:34:22;1.70;99.90
14411;DHT22;7290;50.854;4.354;2023-03-01T05:36:48;1.50;99.90
14411;DHT22;7290;50.854;4.354;2023-03-01T05:39:19;1.70;99.90
14411;DHT22;7290;50.854;4.354;2023-03-01T05:41:46;1.80;99.90
14411;DHT22;7290;50.854;4.354;2023-03-01T05:44:12;1.70;99.90
14411;DHT22;7290;50.854;4.354;2023-03-01T05:46:38;1.70;99.90
14411;DHT22;7290;50.854;4.354;2023-03-01T05:49:04;1.60;99.90
14411;DHT22;7290;50.854;4.354;2023-03-01T05:51:31;1.80;99.90
14411;DHT22;7290;50.854;4.354;2023-03-01T05:53:57;1.80;99.90
14411;DHT22;7290;50.854;4.354;2023-03-01T05:56:23;1.80;99.90
14411;DHT22;7290;50.854;4.354;2023-03-01T05:58:49;1.80;99.90
14411;DHT22;7290;50.854;4.354;2023-03-01T06:01:16;1.80;99.90
14411;DHT22;7290;50.854;4.354;2023-03-01T06:03:42;1.70;99.90
14411;DHT22;7290;50.854;4.354;2023-03-01T06:06:08;1.70;99.90
14411;DHT22;7290;50.854;4.354;2023-03-01T06:08:35;1.70;99.90
14411;DHT22;7290;50.854;4.354;2023-03-01T06:11:01;1.80;99.90
14411;DHT22;7290;50.854;4.354;2023-03-01T06:13:27;1.80;99.90
14411;DHT22;7290;50.854;4.354;2023-03-01T06:15:55;1.90;99.90
14411;DHT22;7290;50.854;4.354;2023-03-01T06:18:21;1.90;99.90
14411;DHT22;7290;50.854;4.354;2023-03-01T06:20:53;1.90;99.90
14411;DHT22;7290;50.854;4.354;2023-03-01T06:23:19;1.90;99.90
14411;DHT22;7290;50.854;4.354;2023-03-01T06:25:46;1.90;99.90
14411;DHT22;7290;50.854;4.354;2023-03-01T06:28:12;1.80;99.90
14411;DHT22;7290;50.854;4.354;2023-03-01T06:30:38;1.80;99.90
14411;DHT22;7290;50.854;4.354;2023-03-01T06:33:04;1.80;99.90
14411;DHT22;7290;50.854;4.354;2023-03-01T06:35:30;1.80;99.90
14411;DHT22;7290;50.854;4.354;2023-03-01T06:37:58;1.70;99.90
14411;DHT22;7290;50.854;4.354;2023-03-01T06:40:24;1.70;99.90
14411;DHT22;7290;50.854;4.354;2023-03-01T06:42:51;1.70;99.90
14411;DHT22;7290;50.854;4.354;2023-03-01T06:45:18;1.70;99.90
14411;DHT22;7290;50.854;4.354;2023-03-01T06:47:45;1.80;99.90
14411;DHT22;7290;50.854;4.354;2023-03-01T06:50:11;1.80;99.90
14411;DHT22;7290;50.854;4.354;2023-03-01T06:52:38;1.70;99.90
14411;DHT22;7290;50.854;4.354;2023-03-01T06:55:05;1.70;99.90
14411;DHT22;7290;50.854;4.354;2023-03-01T06:57:32;1.70;99.90
14411;DHT22;7290;50.854;4.354;2023-03-01T06:59:58;1.70;99.90
14411;DHT22;7290;50.854;4.354;2023-03-01T07:02:24;1.60;99.90
14411;DHT22;7290;50.854;4.354;2023-03-01T07:04:51;1.70;99.90
14411;DHT22;7290;50.854;4.354;2023-03-01T07:07:17;1.70;99.90
14411;DHT22;7290;50.854;4.354;2023-03-01T07:09:43;1.80;99.90
14411;DHT22;7290;50.854;4.354;2023-03-01T07:12:09;1.90;99.90
14411;DHT22;7290;50.854;4.354;2023-03-01T07:14:35;1.80;99.90
14411;DHT22;7290;50.854;4.354;2023-03-01T07:17:02;1.70;99.90
14411;DHT22;7290;50.854;4.354;2023-03-01T07:19:28;1.70;99.90
14411;DHT22;7290;50.854;4.354;2023-03-01T07:21:54;1.60;99.90
14411;DHT22;7290;50.854;4.354;2023-03-01T07:24:21;1.60;99.90
14411;DHT22;7290;50.854;4.354;2023-03-01T07:26:48;1.60;99.90
14411;DHT22;7290;50.854;4.354;2023-03-01T07:29:14;1.60;99.90
14411;DHT22;7290;50.854;4.354;2023-03-01T07:31:41;1.60;99.90
14411;DHT22;7290;50.854;4.354;2023-03-01T07:34:07;1.50;99.90
14411;DHT22;7290;50.854;4.354;2023-03-01T07:36:33;1.60;99.90
14411;DHT22;7290;50.854;4.354;2023-03-01T07:39:00;1.60;99.90
14411;DHT22;7290;50.854;4.354;2023-03-01T07:41:27;1.60;99.90
14411;DHT22;7290;50.854;4.354;2023-03-01T07:43:53;1.70;99.90
14411;DHT22;7290;50.854;4.354;2023-03-01T07:46:20;1.80;99.90
14411;DHT22;7290;50.854;4.354;2023-03-01T07:48:46;1.80;99.90
14411;DHT22;7290;50.854;4.354;2023-03-01T07:51:13;1.60;99.90
14411;DHT22;7290;50.854;4.354;2023-03-01T07:53:39;1.40;99.90
14411;DHT22;7290;50.854;4.354;2023-03-01T07:56:07;1.60;99.90
14411;DHT22;7290;50.854;4.354;2023-03-01T07:58:34;1.70;99.90
14411;DHT22;7290;50.854;4.354;2023-03-01T08:01:01;1.80;99.90
14411;DHT22;7290;50.854;4.354;2023-03-01T08:03:27;1.90;99.90
14411;DHT22;7290;50.854;4.354;2023-03-01T08:05:53;2.00;99.90
14411;DHT22;7290;50.854;4.354;2023-03-01T08:08:20;2.20;99.90
14411;DHT22;7290;50.854;4.354;2023-03-01T08:10:46;2.30;99.90
14411;DHT22;7290;50.854;4.354;2023-03-01T08:13:12;2.50;99.90
14411;DHT22;7290;50.854;4.354;2023-03-01T08:15:38;2.60;99.90
14411;DHT22;7290;50.854;4.354;2023-03-01T08:18:04;1.90;99.90
14411;DHT22;7290;50.854;4.354;2023-03-01T08:20:32;1.80;99.90
14411;DHT22;7290;50.854;4.354;2023-03-01T08:22:58;2.10;99.90
14411;DHT22;7290;50.854;4.354;2023-03-01T08:25:25;2.20;99.90
14411;DHT22;7290;50.854;4.354;2023-03-01T08:27:51;2.10;99.90
14411;DHT22;7290;50.854;4.354;2023-03-01T08:30:17;2.00;99.90
14411;DHT22;7290;50.854;4.354;2023-03-01T08:32:44;2.10;99.90
14411;DHT22;7290;50.854;4.354;2023-03-01T08:35:10;2.30;99.90
14411;DHT22;7290;50.854;4.354;2023-03-01T08:37:36;2.30;99.90
14411;DHT22;7290;50.854;4.354;2023-03-01T08:40:02;2.40;99.90
14411;DHT22;7290;50.854;4.354;2023-03-01T08:42:33;2.60;99.90
14411;DHT22;7290;50.854;4.354;2023-03-01T08:44:59;2.60;99.90
14411;DHT22;7290;50.854;4.354;2023-03-01T08:47:25;2.60;99.90
14411;DHT22;7290;50.854;4.354;2023-03-01T08:49:51;2.50;99.90
14411;DHT22;7290;50.854;4.354;2023-03-01T08:52:18;2.60;99.90
14411;DHT22;7290;50.854;4.354;2023-03-01T08:54:44;2.80;99.90
14411;DHT22;7290;50.854;4.354;2023-03-01T08:57:10;3.00;99.90
14411;DHT22;7290;50.854;4.354;2023-03-01T08:59:38;3.10;99.90
14411;DHT22;7290;50.854;4.354;2023-03-01T09:02:08;3.20;99.90
14411;DHT22;7290;50.854;4.354;2023-03-01T09:04:37;3.40;99.90
14411;DHT22;7290;50.854;4.354;2023-03-01T09:07:03;3.30;99.90
14411;DHT22;7290;50.854;4.354;2023-03-01T09:09:29;2.90;99.90
14411;DHT22;7290;50.854;4.354;2023-03-01T09:11:55;2.70;99.90
14411;DHT22;7290;50.854;4.354;2023-03-01T09:14:22;2.60;99.90
14411;DHT22;7290;50.854;4.354;2023-03-01T09:16:49;3.00;99.90
14411;DHT22;7290;50.854;4.354;2023-03-01T09:19:18;3.00;99.90
14411;DHT22;7290;50.854;4.354;2023-03-01T09:21:44;2.90;99.90
14411;DHT22;7290;50.854;4.354;2023-03-01T09:24:18;3.10;99.90
14411;DHT22;7290;50.854;4.354;2023-03-01T09:26:45;2.80;99.90
14411;DHT22;7290;50.854;4.354;2023-03-01T09:29:12;2.60;99.90
14411;DHT22;7290;50.854;4.354;2023-03-01T09:31:38;2.80;99.90
14411;DHT22;7290;50.854;4.354;2023-03-01T09:34:05;2.80;99.90
14411;DHT22;7290;50.854;4.354;2023-03-01T09:36:32;2.90;99.90
14411;DHT22;7290;50.854;4.354;2023-03-01T09:38:58;2.80;99.90
14411;DHT22;7290;50.854;4.354;2023-03-01T09:41:47;3.10;99.90
14411;DHT22;7290;50.854;4.354;2023-03-01T09:44:27;3.20;99.90
14411;DHT22;7290;50.854;4.354;2023-03-01T09:46:55;3.30;99.90
14411;DHT22;7290;50.854;4.354;2023-03-01T09:49:25;3.40;99.90
14411;DHT22;7290;50.854;4.354;2023-03-01T09:51:58;3.50;99.90
14411;DHT22;7290;50.854;4.354;2023-03-01T09:54:26;3.50;99.90
14411;DHT22;7290;50.854;4.354;2023-03-01T09:57:04;3.70;99.90
14411;DHT22;7290;50.854;4.354;2023-03-01T09:59:39;4.10;99.90
14411;DHT22;7290;50.854;4.354;2023-03-01T10:02:22;5.90;99.90
14411;DHT22;7290;50.854;4.354;2023-03-01T10:04:51;7.30;99.90
14411;DHT22;7290;50.854;4.354;2023-03-01T10:07:27;9.50;99.90
14411;DHT22;7290;50.854;4.354;2023-03-01T10:09:54;10.30;98.10
14411;DHT22;7290;50.854;4.354;2023-03-01T10:12:24;11.50;95.40
14411;DHT22;7290;50.854;4.354;2023-03-01T10:14:57;12.30;94.40
14411;DHT22;7290;50.854;4.354;2023-03-01T10:17:30;12.40;93.10
14411;DHT22;7290;50.854;4.354;2023-03-01T10:20:19;11.80;93.30
14411;DHT22;7290;50.854;4.354;2023-03-01T10:22:45;11.60;94.00
14411;DHT22;7290;50.854;4.354;2023-03-01T10:25:20;10.70;94.00
14411;DHT22;7290;50.854;4.354;2023-03-01T10:27:51;11.40;94.10
14411;DHT22;7290;50.854;4.354;2023-03-01T10:30:21;10.20;94.80
14411;DHT22;7290;50.854;4.354;2023-03-01T10:32:51;12.00;93.60
14411;DHT22;7290;50.854;4.354;2023-03-01T10:35:20;13.50;91.70
14411;DHT22;7290;50.854;4.354;2023-03-01T10:37:58;12.40;92.50
14411;DHT22;7290;50.854;4.354;2023-03-01T10:40:24;12.40;91.00
14411;DHT22;7290;50.854;4.354;2023-03-01T10:42:50;12.80;91.80
14411;DHT22;7290;50.854;4.354;2023-03-01T10:45:33;14.30;90.50
14411;DHT22;7290;50.854;4.354;2023-03-01T10:48:12;15.20;87.20
14411;DHT22;7290;50.854;4.354;2023-03-01T10:50:40;14.70;85.00
14411;DHT22;7290;50.854;4.354;2023-03-01T10:53:24;14.60;87.10
14411;DHT22;7290;50.854;4.354;2023-03-01T10:56:01;14.60;84.80
14411;DHT22;7290;50.854;4.354;2023-03-01T10:58:29;15.20;84.10
14411;DHT22;7290;50.854;4.354;2023-03-01T11:00:57;15.40;83.10
14411;DHT22;7290;50.854;4.354;2023-03-01T11:03:25;12.60;87.90
14411;DHT22;7290;50.854;4.354;2023-03-01T11:05:58;13.90;87.90
14411;DHT22;7290;50.854;4.354;2023-03-01T11:08:36;14.80;83.80
14411;DHT22;7290;50.854;4.354;2023-03-01T11:11:13;15.30;84.20
14411;DHT22;7290;50.854;4.354;2023-03-01T11:13:51;16.10;81.50
14411;DHT22;7290;50.854;4.354;2023-03-01T11:16:23;16.30;80.50
14411;DHT22;7290;50.854;4.354;2023-03-01T11:18:56;14.60;81.20
14411;DHT22;7290;50.854;4.354;2023-03-01T11:21:24;14.20;83.50
14411;DHT22;7290;50.854;4.354;2023-03-01T11:23:52;13.00;86.60
14411;DHT22;7290;50.854;4.354;2023-03-01T11:26:19;14.40;84.90
14411;DHT22;7290;50.854;4.354;2023-03-01T11:28:48;14.60;81.10
14411;DHT22;7290;50.854;4.354;2023-03-01T11:31:15;13.60;84.80
14411;DHT22;7290;50.854;4.354;2023-03-01T11:33:46;14.80;83.60
14411;DHT22;7290;50.854;4.354;2023-03-01T11:36:19;15.20;81.80
14411;DHT22;7290;50.854;4.354;2023-03-01T11:38:48;15.70;80.70
14411;DHT22;7290;50.854;4.354;2023-03-01T11:41:16;15.90;79.60
14411;DHT22;7290;50.854;4.354;2023-03-01T11:43:49;12.90;82.00
14411;DHT22;7290;50.854;4.354;2023-03-01T11:46:41;12.40;87.60
14411;DHT22;7290;50.854;4.354;2023-03-01T11:49:40;13.90;84.50
14411;DHT22;7290;50.854;4.354;2023-03-01T11:52:17;15.40;81.40
14411;DHT22;7290;50.854;4.354;2023-03-01T11:54:55;17.20;78.20
14411;DHT22;7290;50.854;4.354;2023-03-01T11:57:34;17.70;75.90
14411;DHT22;7290;50.854;4.354;2023-03-01T12:00:17;17.70;75.20
14411;DHT22;7290;50.854;4.354;2023-03-01T12:06:02;14.10;82.00
14411;DHT22;7290;50.854;4.354;2023-03-01T12:08:35;14.30;81.40
14411;DHT22;7290;50.854;4.354;2023-03-01T12:11:12;14.30;81.30
14411;DHT22;7290;50.854;4.354;2023-03-01T12:14:14;15.20;80.50
14411;DHT22;7290;50.854;4.354;2023-03-01T12:17:00;16.10;77.80
14411;DHT22;7290;50.854;4.354;2023-03-01T12:19:46;16.80;76.70
14411;DHT22;7290;50.854;4.354;2023-03-01T12:22:29;14.60;76.80
14411;DHT22;7290;50.854;4.354;2023-03-01T12:25:14;14.50;80.70
14411;DHT22;7290;50.854;4.354;2023-03-01T12:28:00;15.50;78.20
14411;DHT22;7290;50.854;4.354;2023-03-01T12:30:39;16.20;75.90
14411;DHT22;7290;50.854;4.354;2023-03-01T12:33:19;16.20;76.30
14411;DHT22;7290;50.854;4.354;2023-03-01T12:36:05;13.20;79.00
14411;DHT22;7290;50.854;4.354;2023-03-01T12:38:41;13.10;82.60
14411;DHT22;7290;50.854;4.354;2023-03-01T12:44:21;13.10;82.20
14411;DHT22;7290;50.854;4.354;2023-03-01T12:47:04;12.80;83.00
14411;DHT22;7290;50.854;4.354;2023-03-01T12:49:35;12.40;83.80
14411;DHT22;7290;50.854;4.354;2023-03-01T12:52:11;12.90;83.30
14411;DHT22;7290;50.854;4.354;2023-03-01T12:54:41;12.70;82.70
14411;DHT22;7290;50.854;4.354;2023-03-01T12:57:14;12.80;83.00
14411;DHT22;7290;50.854;4.354;2023-03-01T12:59:50;12.50;83.50
14411;DHT22;7290;50.854;4.354;2023-03-01T13:02:23;11.20;85.50
14411;DHT22;7290;50.854;4.354;2023-03-01T13:04:58;10.80;87.20
14411;DHT22;7290;50.854;4.354;2023-03-01T13:07:31;10.80;88.10
14411;DHT22;7290;50.854;4.354;2023-03-01T13:10:17;10.90;88.10
14411;DHT22;7290;50.854;4.354;2023-03-01T13:13:00;10.40;88.40
14411;DHT22;7290;50.854;4.354;2023-03-01T13:15:30;9.40;90.50
14411;DHT22;7290;50.854;4.354;2023-03-01T13:17:58;9.50;90.90
14411;DHT22;7290;50.854;4.354;2023-03-01T13:20:29;9.60;90.10
14411;DHT22;7290;50.854;4.354;2023-03-01T13:23:07;9.70;90.10
14411;DHT22;7290;50.854;4.354;2023-03-01T13:25:34;9.70;90.30
14411;DHT22;7290;50.854;4.354;2023-03-01T13:28:41;9.80;90.10
14411;DHT22;7290;50.854;4.354;2023-03-01T13:31:09;9.50;90.10
14411;DHT22;7290;50.854;4.354;2023-03-01T13:33:45;9.10;90.30
14411;DHT22;7290;50.854;4.354;2023-03-01T13:36:47;9.30;90.50
14411;DHT22;7290;50.854;4.354;2023-03-01T13:39:38;9.20;90.50
14411;DHT22;7290;50.854;4.354;2023-03-01T13:42:37;8.70;91.30
14411;DHT22;7290;50.854;4.354;2023-03-01T13:45:05;8.90;91.60
14411;DHT22;7290;50.854;4.354;2023-03-01T13:47:42;9.10;91.70
14411;DHT22;7290;50.854;4.354;2023-03-01T13:50:17;9.50;91.20
14411;DHT22;7290;50.854;4.354;2023-03-01T13:52:48;9.50;91.00
14411;DHT22;7290;50.854;4.354;2023-03-01T13:55:22;9.40;90.80
14411;DHT22;7290;50.854;4.354;2023-03-01T13:57:54;9.40;90.50
14411;DHT22;7290;50.854;4.354;2023-03-01T14:00:35;9.40;90.50
14411;DHT22;7290;50.854;4.354;2023-03-01T14:03:19;9.40;90.50
14411;DHT22;7290;50.854;4.354;2023-03-01T14:06:04;9.20;91.00
14411;DHT22;7290;50.854;4.354;2023-03-01T14:08:33;9.30;91.30
14411;DHT22;7290;50.854;4.354;2023-03-01T14:11:21;9.60;91.10
14411;DHT22;7290;50.854;4.354;2023-03-01T14:14:02;9.70;90.90
14411;DHT22;7290;50.854;4.354;2023-03-01T14:16:40;9.80;90.30
14411;DHT22;7290;50.854;4.354;2023-03-01T14:19:15;9.30;90.30
14411;DHT22;7290;50.854;4.354;2023-03-01T14:21:42;9.00;90.80
14411;DHT22;7290;50.854;4.354;2023-03-01T14:24:16;9.30;91.00
14411;DHT22;7290;50.854;4.354;2023-03-01T14:26:43;9.50;90.80
14411;DHT22;7290;50.854;4.354;2023-03-01T14:29:24;9.70;90.70
14411;DHT22;7290;50.854;4.354;2023-03-01T14:31:51;9.20;91.10
14411;DHT22;7290;50.854;4.354;2023-03-01T14:34:24;9.40;91.20
14411;DHT22;7290;50.854;4.354;2023-03-01T14:36:50;9.40;91.20
14411;DHT22;7290;50.854;4.354;2023-03-01T14:39:18;9.20;91.60
14411;DHT22;7290;50.854;4.354;2023-03-01T14:41:45;8.80;91.80
14411;DHT22;7290;50.854;4.354;2023-03-01T14:44:16;9.10;91.70
14411;DHT22;7290;50.854;4.354;2023-03-01T14:46:45;9.30;91.40
14411;DHT22;7290;50.854;4.354;2023-03-01T14:49:13;9.40;91.50
14411;DHT22;7290;50.854;4.354;2023-03-01T14:51:42;9.50;91.50
14411;DHT22;7290;50.854;4.354;2023-03-01T14:54:20;9.60;91.50
14411;DHT22;7290;50.854;4.354;2023-03-01T14:56:47;9.50;91.70
14411;DHT22;7290;50.854;4.354;2023-03-01T14:59:13;9.50;91.90
14411;DHT22;7290;50.854;4.354;2023-03-01T15:01:40;9.60;91.70
14411;DHT22;7290;50.854;4.354;2023-03-01T15:04:11;9.70;91.40
14411;DHT22;7290;50.854;4.354;2023-03-01T15:06:38;9.40;91.30
14411;DHT22;7290;50.854;4.354;2023-03-01T15:09:04;9.20;91.80
14411;DHT22;7290;50.854;4.354;2023-03-01T15:11:32;9.40;91.40
14411;DHT22;7290;50.854;4.354;2023-03-01T15:13:59;9.30;91.70
14411;DHT22;7290;50.854;4.354;2023-03-01T15:16:26;9.40;91.70
14411;DHT22;7290;50.854;4.354;2023-03-01T15:18:55;9.70;91.50
14411;DHT22;7290;50.854;4.354;2023-03-01T15:21:24;9.80;91.50
14411;DHT22;7290;50.854;4.354;2023-03-01T15:23:53;9.80;91.00
14411;DHT22;7290;50.854;4.354;2023-03-01T15:26:24;9.60;90.90
14411;DHT22;7290;50.854;4.354;2023-03-01T15:28:52;9.30;91.50
14411;DHT22;7290;50.854;4.354;2023-03-01T15:31:22;9.70;91.40
14411;DHT22;7290;50.854;4.354;2023-03-01T15:33:49;9.70;91.00
14411;DHT22;7290;50.854;4.354;2023-03-01T15:36:35;9.50;91.10
14411;DHT22;7290;50.854;4.354;2023-03-01T15:39:02;9.40;91.60
14411;DHT22;7290;50.854;4.354;2023-03-01T15:41:30;9.60;91.50
14411;DHT22;7290;50.854;4.354;2023-03-01T15:43:57;9.80;91.70
14411;DHT22;7290;50.854;4.354;2023-03-01T15:46:27;9.80;91.40
14411;DHT22;7290;50.854;4.354;2023-03-01T15:48:56;9.50;91.70
14411;DHT22;7290;50.854;4.354;2023-03-01T15:51:29;9.40;92.20
14411;DHT22;7290;50.854;4.354;2023-03-01T15:53:59;9.60;91.90
14411;DHT22;7290;50.854;4.354;2023-03-01T15:56:25;9.70;91.50
14411;DHT22;7290;50.854;4.354;2023-03-01T15:58:51;9.50;91.40
14411;DHT22;7290;50.854;4.354;2023-03-01T16:01:18;9.40;91.80
14411;DHT22;7290;50.854;4.354;2023-03-01T16:03:44;9.60;91.70
14411;DHT22;7290;50.854;4.354;2023-03-01T16:06:11;9.90;91.20
14411;DHT22;7290;50.854;4.354;2023-03-01T16:08:37;10.10;91.30
14411;DHT22;7290;50.854;4.354;2023-03-01T16:11:05;9.60;91.40
14411;DHT22;7290;50.854;4.354;2023-03-01T16:13:34;9.50;91.50
14411;DHT22;7290;50.854;4.354;2023-03-01T16:16:00;9.60;91.70
14411;DHT22;7290;50.854;4.354;2023-03-01T16:18:26;9.50;92.00
14411;DHT22;7290;50.854;4.354;2023-03-01T16:20:53;9.60;91.80
14411;DHT22;7290;50.854;4.354;2023-03-01T16:23:19;9.70;91.60